Map

Track Data

SID SEASON NUMBER BASIN SUBBASIN NAME ISO_TIME NATURE LAT LON WMO_WIND WMO_PRES WMO_AGENCY TRACK_TYPE DIST2LAND LANDFALL IFLAG USA_AGENCY USA_ATCF_ID USA_LAT USA_LON USA_RECORD USA_STATUS USA_WIND USA_PRES USA_SSHS USA_R34_NE USA_R34_SE USA_R34_SW USA_R34_NW USA_R50_NE USA_R50_SE USA_R50_SW USA_R50_NW USA_R64_NE USA_R64_SE USA_R64_SW USA_R64_NW USA_POCI USA_ROCI USA_RMW USA_EYE TOKYO_LAT TOKYO_LON TOKYO_GRADE TOKYO_WIND TOKYO_PRES TOKYO_R50_DIR TOKYO_R50_LONG TOKYO_R50_SHORT TOKYO_R30_DIR TOKYO_R30_LONG TOKYO_R30_SHORT TOKYO_LAND CMA_LAT CMA_LON CMA_CAT CMA_WIND CMA_PRES HKO_LAT HKO_LON HKO_CAT HKO_WIND HKO_PRES NEWDELHI_LAT NEWDELHI_LON NEWDELHI_GRADE NEWDELHI_WIND NEWDELHI_PRES NEWDELHI_CI NEWDELHI_DP NEWDELHI_POCI REUNION_LAT REUNION_LON REUNION_TYPE REUNION_WIND REUNION_PRES REUNION_TNUM REUNION_CI REUNION_RMW REUNION_R34_NE REUNION_R34_SE REUNION_R34_SW REUNION_R34_NW REUNION_R50_NE REUNION_R50_SE REUNION_R50_SW REUNION_R50_NW REUNION_R64_NE REUNION_R64_SE REUNION_R64_SW REUNION_R64_NW BOM_LAT BOM_LON BOM_TYPE BOM_WIND BOM_PRES BOM_TNUM BOM_CI BOM_RMW BOM_R34_NE BOM_R34_SE BOM_R34_SW BOM_R34_NW BOM_R50_NE BOM_R50_SE BOM_R50_SW BOM_R50_NW BOM_R64_NE BOM_R64_SE BOM_R64_SW BOM_R64_NW BOM_ROCI BOM_POCI BOM_EYE BOM_POS_METHOD BOM_PRES_METHOD NADI_LAT NADI_LON NADI_CAT NADI_WIND NADI_PRES WELLINGTON_LAT WELLINGTON_LON WELLINGTON_WIND WELLINGTON_PRES DS824_LAT DS824_LON DS824_STAGE DS824_WIND DS824_PRES TD9636_LAT TD9636_LON TD9636_STAGE TD9636_WIND TD9636_PRES TD9635_LAT TD9635_LON TD9635_WIND TD9635_PRES TD9635_ROCI NEUMANN_LAT NEUMANN_LON NEUMANN_CLASS NEUMANN_WIND NEUMANN_PRES MLC_LAT MLC_LON MLC_CLASS MLC_WIND MLC_PRES USA_GUST BOM_GUST BOM_GUST_PER REUNION_GUST REUNION_GUST_PER USA_SEAHGT USA_SEARAD_NE USA_SEARAD_SE USA_SEARAD_SW USA_SEARAD_NW STORM_SPEED STORM_DIR
1920237N17116 1920 33 WP MM NOT_NAMED 1920-08-24 10:00:00 NR 17.3000 116.100 main 409 409 __________O___ -1 17.3000 116.100 2 9 270
1920237N17116 1920 33 WP MM NOT_NAMED 1920-08-24 12:00:00 NR 17.3020 115.776 main 440 450 __________P___ -1 17.3020 115.776 2 9 270
1920237N17116 1920 33 WP MM NOT_NAMED 1920-08-24 15:00:00 NR 17.3036 115.300 main 490 476 __________P___ -1 17.3036 115.300 2 9 270
1920237N17116 1920 33 WP MM NOT_NAMED 1920-08-24 18:00:00 NR 17.3035 114.846 main 476 441 __________P___ -1 17.3035 114.846 2 8 270
1920237N17116 1920 33 WP MM NOT_NAMED 1920-08-24 21:00:00 NR 17.3012 114.429 main 441 432 __________P___ -1 17.3012 114.429 2 8 270
1920237N17116 1920 33 WP MM NOT_NAMED 1920-08-24 22:00:00 NR 17.3000 114.300 main 432 415 __________O___ -1 17.3000 114.300 2 7 269
1920237N17116 1920 33 WP MM NOT_NAMED 1920-08-25 00:00:00 NR 17.2969 114.060 main 415 377 __________P___ -1 17.2969 114.060 2 7 269
1920237N17116 1920 33 WP MM NOT_NAMED 1920-08-25 03:00:00 NR 17.2926 113.732 main 377 349 __________P___ -1 17.2926 113.732 2 6 269
1920237N17116 1920 33 WP MM NOT_NAMED 1920-08-25 06:00:00 NR 17.2914 113.422 main 349 322 __________P___ -1 17.2914 113.422 2 6 270
1920237N17116 1920 33 WP MM NOT_NAMED 1920-08-25 09:00:00 NR 17.2964 113.109 main 322 313 __________P___ -1 17.2964 113.109 2 6 271
1920237N17116 1920 33 WP MM NOT_NAMED 1920-08-25 10:00:00 NR 17.3000 113.000 main 313 295 __________O___ -1 17.3000 113.000 2 6 273
1920237N17116 1920 33 WP MM NOT_NAMED 1920-08-25 12:00:00 NR 17.3107 112.772 main 295 261 __________P___ -1 17.3107 112.772 2 7 273
1920237N17116 1920 33 WP MM NOT_NAMED 1920-08-25 15:00:00 NR 17.3332 112.417 main 261 222 __________P___ -1 17.3332 112.417 2 7 274
1920237N17116 1920 33 WP MM NOT_NAMED 1920-08-25 18:00:00 NR 17.3608 112.042 main 222 193 __________P___ -1 17.3608 112.042 2 7 274
1920237N17116 1920 33 WP MM NOT_NAMED 1920-08-25 21:00:00 NR 17.3903 111.641 main 193 186 __________P___ -1 17.3903 111.641 2 8 274
1920237N17116 1920 33 WP MM NOT_NAMED 1920-08-25 22:00:00 NR 17.4000 111.500 main 186 168 __________O___ -1 17.4000 111.500 2 8 273
1920237N17116 1920 33 WP MM NOT_NAMED 1920-08-26 00:00:00 NR 17.4114 111.209 main 168 134 __________P___ -1 17.4114 111.209 2 9 272
1920237N17116 1920 33 WP MM NOT_NAMED 1920-08-26 03:00:00 NR 17.4283 110.747 main 134 100 __________P___ -1 17.4283 110.747 2 9 272
1920237N17116 1920 33 WP MM NOT_NAMED 1920-08-26 06:00:00 NR 17.4507 110.263 main 100 79 __________P___ -1 17.4507 110.263 2 9 273
1920237N17116 1920 33 WP MM NOT_NAMED 1920-08-26 09:00:00 NR 17.4849 109.767 main 79 78 __________P___ -1 17.4849 109.767 2 10 274
1920237N17116 1920 33 WP MM NOT_NAMED 1920-08-26 10:00:00 NR 17.5000 109.600 main 78 78 __________O___ -1 17.5000 109.600 2 10 276
1920237N17116 1920 33 WP MM NOT_NAMED 1920-08-26 12:00:00 NR 17.5367 109.267 main 81 74 __________P___ -1 17.5367 109.267 2 10 278
1920237N17116 1920 33 WP MM NOT_NAMED 1920-08-26 15:00:00 NR 17.6052 108.767 main 91 91 __________P___ -1 17.6052 108.767 2 10 279
1920237N17116 1920 33 WP MM NOT_NAMED 1920-08-26 18:00:00 NR 17.6851 108.267 main 98 103 __________P___ -1 17.6851 108.267 2 10 280
1920237N17116 1920 33 WP MM NOT_NAMED 1920-08-26 21:00:00 NR 17.7710 107.767 main 107 94 __________P___ -1 17.7710 107.767 2 10 280
1920237N17116 1920 33 WP MM NOT_NAMED 1920-08-26 22:00:00 NR 17.8000 107.600 main 94 __________O___ -1 17.8000 107.600 2 10 280

Digital Typhoon Data and Search

About IBTrACS Database

This database is a web-friendly format of International Best Track Archive for Climate Stewardship (IBTrACS), a global best track data archive curated by NOAA dating back to 1842.

Updated: 2021-12-08